Time;durP1;ratioP1;P1;durP2;ratioP2;P2;SDS_P1;SDS_P2;PMS_P1;PMS_P2;Temp;Humidity;BMP_temperature;BMP_pressure;BME280_temperature;BME280_humidity;BME280_pressure;Samples;Min_cycle;Max_cycle;Signal;HPM_P1;HPM_P2
2023/11/05 00:01:37;;;;;;;9.57;2.40;;;;;;;;;;5049367;28;20201;-65
2023/11/05 00:04:04;;;;;;;14.03;3.10;;;;;;;;;;5029792;28;20181;-66
2023/11/05 00:06:31;;;;;;;8.70;2.57;;;;;;;;;;5046208;28;20201;-65
2023/11/05 00:08:56;;;;;;;15.23;3.03;;;;;;;;;;5046449;28;21602;-65
2023/11/05 00:11:21;;;;;;;7.80;2.30;;;;;;;;;;5044347;28;20189;-65
2023/11/05 00:13:46;;;;;;;7.87;2.60;;;;;;;;;;5045960;28;20292;-66
2023/11/05 00:16:12;;;;;;;6.23;1.93;;;;;;;;;;5046377;28;20573;-65
2023/11/05 00:18:37;;;;;;;9.83;2.03;;;;;;;;;;5047003;28;20181;-66
2023/11/05 00:21:03;;;;;;;17.17;2.77;;;;;;;;;;5048823;28;20208;-66
2023/11/05 00:23:29;;;;;;;10.70;3.13;;;;;;;;;;5048120;28;20413;-65
2023/11/05 00:25:55;;;;;;;8.67;2.20;;;;;;;;;;5051196;28;20201;-68
2023/11/05 00:28:20;;;;;;;14.90;3.23;;;;;;;;;;5036471;28;20184;-66
2023/11/05 00:30:46;;;;;;;15.07;2.87;;;;;;;;;;5053885;28;20255;-66
2023/11/05 00:33:11;;;;;;;9.87;2.13;;;;;;;;;;5050173;28;20666;-65
2023/11/05 00:35:36;;;;;;;13.67;2.10;;;;;;;;;;5055203;28;20188;-66
2023/11/05 00:38:03;;;;;;;13.03;2.30;;;;;;;;;;5058462;28;20226;-65
2023/11/05 00:40:28;;;;;;;16.03;2.60;;;;;;;;;;5060926;28;20197;-67
2023/11/05 00:42:54;;;;;;;8.97;2.50;;;;;;;;;;5045693;28;20659;-66
2023/11/05 00:45:19;;;;;;;12.33;2.20;;;;;;;;;;5062500;28;20198;-66
2023/11/05 00:47:44;;;;;;;8.93;2.73;;;;;;;;;;5061427;28;20201;-66
2023/11/05 00:50:09;;;;;;;12.17;2.30;;;;;;;;;;5061986;28;20691;-66
2023/11/05 00:52:35;;;;;;;7.90;2.17;;;;;;;;;;5063680;28;20174;-66
2023/11/05 00:55:00;;;;;;;9.00;2.03;;;;;;;;;;5063297;28;20187;-66
2023/11/05 00:57:25;;;;;;;7.53;2.50;;;;;;;;;;5056555;28;20195;-66
2023/11/05 00:59:50;;;;;;;14.90;2.43;;;;;;;;;;5058339;28;20247;-67
2023/11/05 01:02:16;;;;;;;10.10;2.53;;;;;;;;;;5066593;28;20173;-66
2023/11/05 01:04:41;;;;;;;8.97;2.53;;;;;;;;;;5064910;28;20920;-66
2023/11/05 01:07:06;;;;;;;10.40;2.17;;;;;;;;;;5070765;28;20201;-66
2023/11/05 01:09:31;;;;;;;8.73;2.70;;;;;;;;;;5066946;28;20196;-66
2023/11/05 01:11:57;;;;;;;10.27;2.03;;;;;;;;;;5065919;28;20173;-66
2023/11/05 01:14:22;;;;;;;8.30;1.77;;;;;;;;;;5062948;28;20188;-67
2023/11/05 01:16:47;;;;;;;10.43;1.80;;;;;;;;;;5063117;28;20564;-66
2023/11/05 01:19:12;;;;;;;12.50;2.73;;;;;;;;;;5063414;28;20185;-66
2023/11/05 01:21:38;;;;;;;10.30;2.53;;;;;;;;;;5065097;28;20209;-67
2023/11/05 01:24:04;;;;;;;11.27;2.30;;;;;;;;;;5066592;28;20632;-66
2023/11/05 01:26:29;;;;;;;10.63;2.60;;;;;;;;;;5065992;28;20194;-66
2023/11/05 01:28:54;;;;;;;16.23;2.20;;;;;;;;;;5070055;28;20177;-67
2023/11/05 01:31:20;;;;;;;11.60;2.23;;;;;;;;;;5066665;28;20193;-66
2023/11/05 01:33:45;;;;;;;10.23;2.53;;;;;;;;;;5056797;28;20200;-66
2023/11/05 01:36:10;;;;;;;7.20;2.70;;;;;;;;;;5058260;28;20193;-67
2023/11/05 01:38:35;;;;;;;8.70;1.83;;;;;;;;;;5058523;28;20184;-66
2023/11/05 01:41:01;;;;;;;11.17;2.77;;;;;;;;;;5059705;28;20203;-66
2023/11/05 01:43:26;;;;;;;7.90;2.70;;;;;;;;;;5061192;28;20214;-66
2023/11/05 01:45:51;;;;;;;10.17;2.17;;;;;;;;;;5061694;28;20191;-67
2023/11/05 01:48:16;;;;;;;13.77;2.10;;;;;;;;;;5061381;28;20185;-67
2023/11/05 01:50:42;;;;;;;16.27;2.43;;;;;;;;;;5059105;28;20579;-67
2023/11/05 01:53:08;;;;;;;9.87;1.90;;;;;;;;;;5056975;28;20238;-67
2023/11/05 01:55:33;;;;;;;8.13;2.00;;;;;;;;;;5059889;28;20652;-66
2023/11/05 01:57:59;;;;;;;11.53;2.87;;;;;;;;;;5058956;28;20185;-66
2023/11/05 02:00:24;;;;;;;11.90;2.47;;;;;;;;;;5060678;28;20207;-66
2023/11/05 02:02:49;;;;;;;7.80;1.80;;;;;;;;;;5061032;28;20195;-66
2023/11/05 02:05:15;;;;;;;8.07;1.80;;;;;;;;;;5060282;28;20185;-67
2023/11/05 02:07:40;;;;;;;13.30;2.20;;;;;;;;;;5058993;28;20209;-67
2023/11/05 02:10:05;;;;;;;11.93;2.97;;;;;;;;;;5060094;28;20201;-67
2023/11/05 02:12:31;;;;;;;4.67;1.67;;;;;;;;;;5057541;28;20196;-66
2023/11/05 02:14:56;;;;;;;8.63;1.57;;;;;;;;;;5058230;28;20271;-67
2023/11/05 02:17:21;;;;;;;7.50;1.63;;;;;;;;;;5059912;28;20188;-67
2023/11/05 02:19:47;;;;;;;5.37;1.70;;;;;;;;;;5057157;28;20475;-66
2023/11/05 02:22:14;;;;;;;8.67;1.70;;;;;;;;;;5059563;28;20176;-66
2023/11/05 02:24:46;;;;;;;14.70;1.70;;;;;;;;;;5056283;28;20554;-66
2023/11/05 02:27:11;;;;;;;7.53;1.77;;;;;;;;;;5060396;28;20579;-67
2023/11/05 02:29:37;;;;;;;6.00;1.73;;;;;;;;;;5039668;28;20189;-67
2023/11/05 02:32:05;;;;;;;5.13;1.47;;;;;;;;;;5060058;28;20268;-67
2023/11/05 02:34:31;;;;;;;7.57;1.90;;;;;;;;;;5058678;28;20181;-66
2023/11/05 02:36:57;;;;;;;9.43;1.55;;;;;;;;;;5040468;28;20657;-67
2023/11/05 02:39:22;;;;;;;10.63;3.00;;;;;;;;;;5044331;28;20184;-67
2023/11/05 02:41:47;;;;;;;12.60;2.23;;;;;;;;;;5060210;28;20205;-67
2023/11/05 02:44:12;;;;;;;6.60;1.20;;;;;;;;;;5060359;28;20181;-67
2023/11/05 02:46:37;;;;;;;6.00;2.17;;;;;;;;;;5052837;28;20343;-67
2023/11/05 02:49:03;;;;;;;7.97;2.33;;;;;;;;;;5061260;28;20220;-67
2023/11/05 02:51:28;;;;;;;6.23;2.10;;;;;;;;;;5057065;28;21752;-67
2023/11/05 02:53:53;;;;;;;12.33;2.80;;;;;;;;;;5041696;28;20192;-67
2023/11/05 02:56:19;;;;;;;2.73;1.70;;;;;;;;;;5057241;28;20184;-67
2023/11/05 02:58:44;;;;;;;4.03;1.23;;;;;;;;;;5060814;28;20216;-68
2023/11/05 03:01:10;;;;;;;4.17;1.80;;;;;;;;;;5061788;28;20725;-66
2023/11/05 03:03:35;;;;;;;5.30;1.50;;;;;;;;;;5062369;28;20305;-67
2023/11/05 03:06:00;;;;;;;3.73;1.70;;;;;;;;;;5064723;28;20584;-67
2023/11/05 03:08:26;;;;;;;3.43;1.40;;;;;;;;;;5060888;28;20173;-66
2023/11/05 03:10:51;;;;;;;4.43;1.47;;;;;;;;;;5061007;28;20440;-67
2023/11/05 03:13:16;;;;;;;9.10;1.70;;;;;;;;;;5063116;28;20173;-67
2023/11/05 03:15:41;;;;;;;5.40;1.53;;;;;;;;;;5059470;28;20227;-66
2023/11/05 03:18:07;;;;;;;6.80;2.03;;;;;;;;;;5057178;28;20185;-67
2023/11/05 03:20:32;;;;;;;9.60;2.27;;;;;;;;;;5061075;28;20300;-67
2023/11/05 03:22:57;;;;;;;4.20;2.20;;;;;;;;;;5058294;28;20224;-67
2023/11/05 03:25:22;;;;;;;5.83;2.47;;;;;;;;;;5044396;28;20326;-67
2023/11/05 03:27:48;;;;;;;7.70;2.43;;;;;;;;;;5062213;28;20722;-66
2023/11/05 03:30:13;;;;;;;8.87;3.37;;;;;;;;;;5057728;28;20188;-67
2023/11/05 03:32:39;;;;;;;6.68;2.60;;;;;;;;;;5037280;28;20185;-67
2023/11/05 03:35:05;;;;;;;8.13;2.47;;;;;;;;;;5056832;28;20184;-67
2023/11/05 03:37:30;;;;;;;6.00;2.43;;;;;;;;;;5068189;28;20181;-67
2023/11/05 03:39:56;;;;;;;8.03;1.70;;;;;;;;;;5056702;28;20671;-67
2023/11/05 03:42:21;;;;;;;4.47;1.70;;;;;;;;;;5057169;28;20553;-67
2023/11/05 03:44:46;;;;;;;4.40;1.67;;;;;;;;;;5057350;28;20189;-67
2023/11/05 03:47:11;;;;;;;8.90;1.87;;;;;;;;;;5055476;28;20208;-66
2023/11/05 03:49:36;;;;;;;4.10;2.00;;;;;;;;;;5060373;28;20177;-65
2023/11/05 03:52:03;;;;;;;8.87;2.30;;;;;;;;;;5052973;28;20212;-65
2023/11/05 03:54:28;;;;;;;5.45;2.15;;;;;;;;;;5054236;28;20251;-66
2023/11/05 03:56:56;;;;;;;8.13;2.42;;;;;;;;;;5059550;28;20251;-66
2023/11/05 03:59:21;;;;;;;4.55;2.10;;;;;;;;;;5040725;28;20732;-66
2023/11/05 04:01:50;;;;;;;8.10;2.40;;;;;;;;;;5058011;28;20207;-68
2023/11/05 04:04:15;;;;;;;4.73;2.33;;;;;;;;;;5053734;28;20180;-66
2023/11/05 04:06:41;;;;;;;6.60;2.63;;;;;;;;;;5053786;28;20205;-65
2023/11/05 04:09:06;;;;;;;4.57;2.60;;;;;;;;;;5060704;28;20177;-65
2023/11/05 04:11:31;;;;;;;4.97;2.25;;;;;;;;;;5051434;28;20237;-66
2023/11/05 04:13:56;;;;;;;6.45;2.20;;;;;;;;;;5057149;28;20180;-66
2023/11/05 04:16:21;;;;;;;7.47;1.70;;;;;;;;;;5061096;28;20201;-67
2023/11/05 04:18:47;;;;;;;7.80;2.47;;;;;;;;;;5055993;28;20637;-68
2023/11/05 04:21:12;;;;;;;5.83;1.90;;;;;;;;;;5059961;28;20201;-69
2023/11/05 04:23:39;;;;;;;7.33;2.30;;;;;;;;;;5059879;28;20188;-67
2023/11/05 04:26:05;;;;;;;7.85;2.75;;;;;;;;;;5061460;28;20197;-67
2023/11/05 04:28:30;;;;;;;6.00;2.00;;;;;;;;;;5058846;28;20338;-67
2023/11/05 04:30:56;;;;;;;9.43;2.20;;;;;;;;;;5054191;28;20197;-67
2023/11/05 04:33:21;;;;;;;9.53;2.67;;;;;;;;;;5063484;28;20197;-67
2023/11/05 04:35:46;;;;;;;5.27;2.17;;;;;;;;;;5058032;28;20238;-67
2023/11/05 04:38:11;;;;;;;5.70;2.13;;;;;;;;;;5060708;28;20498;-67
2023/11/05 04:40:37;;;;;;;6.27;2.10;;;;;;;;;;5060159;28;20193;-67
2023/11/05 04:43:02;;;;;;;6.30;1.93;;;;;;;;;;5061373;28;20172;-67
2023/11/05 04:45:29;;;;;;;4.93;2.10;;;;;;;;;;5061004;28;20181;-67
2023/11/05 04:47:55;;;;;;;8.03;2.23;;;;;;;;;;5060814;28;20292;-67
2023/11/05 04:50:21;;;;;;;4.73;1.70;;;;;;;;;;5059635;28;20739;-68
2023/11/05 04:52:46;;;;;;;5.03;2.13;;;;;;;;;;5061150;28;20165;-67
2023/11/05 04:55:11;;;;;;;4.70;1.90;;;;;;;;;;5052865;28;20541;-67
2023/11/05 04:57:36;;;;;;;4.63;1.37;;;;;;;;;;5055514;28;20174;-67
2023/11/05 05:00:01;;;;;;;4.33;1.50;;;;;;;;;;5057329;28;20723;-67
2023/11/05 05:02:27;;;;;;;6.07;2.00;;;;;;;;;;5056557;28;20403;-67
2023/11/05 05:04:52;;;;;;;4.40;1.87;;;;;;;;;;5058721;28;20177;-67
2023/11/05 05:07:17;;;;;;;6.90;1.87;;;;;;;;;;5052893;28;20644;-67
2023/11/05 05:09:43;;;;;;;3.93;1.47;;;;;;;;;;5063537;28;20210;-67
2023/11/05 05:12:08;;;;;;;6.70;2.35;;;;;;;;;;5063820;28;20607;-67
2023/11/05 05:14:33;;;;;;;4.93;1.70;;;;;;;;;;5059176;28;20550;-67
2023/11/05 05:16:58;;;;;;;5.85;2.17;;;;;;;;;;5056797;28;20667;-67
2023/11/05 05:19:24;;;;;;;9.33;2.00;;;;;;;;;;5045225;28;21812;-67
2023/11/05 05:21:49;;;;;;;7.70;2.10;;;;;;;;;;5047227;28;20635;-67
2023/11/05 05:24:15;;;;;;;8.18;1.88;;;;;;;;;;5047868;28;20235;-67
2023/11/05 05:26:41;;;;;;;3.03;1.70;;;;;;;;;;5062879;28;20551;-68
2023/11/05 05:29:06;;;;;;;5.30;2.22;;;;;;;;;;5061058;28;20193;-68
2023/11/05 05:31:31;;;;;;;6.93;2.53;;;;;;;;;;5058647;28;20229;-68
2023/11/05 05:33:56;;;;;;;6.20;2.38;;;;;;;;;;5062221;28;20185;-68
2023/11/05 05:36:22;;;;;;;4.57;1.97;;;;;;;;;;5054091;28;20189;-68
2023/11/05 05:38:47;;;;;;;3.83;1.83;;;;;;;;;;5058638;28;20188;-68
2023/11/05 05:41:13;;;;;;;7.45;2.20;;;;;;;;;;5043673;28;20292;-68
2023/11/05 05:43:38;;;;;;;8.60;2.27;;;;;;;;;;5062060;28;20194;-68
2023/11/05 05:46:03;;;;;;;4.78;2.10;;;;;;;;;;5064531;28;20655;-67
2023/11/05 05:48:28;;;;;;;5.22;2.05;;;;;;;;;;5059653;28;20599;-67
2023/11/05 05:50:54;;;;;;;4.30;1.58;;;;;;;;;;5069578;28;20306;-68
2023/11/05 05:53:19;;;;;;;5.30;2.08;;;;;;;;;;5053807;28;20166;-68
2023/11/05 05:55:44;;;;;;;7.07;1.92;;;;;;;;;;5063095;28;20255;-68
2023/11/05 05:58:10;;;;;;;4.93;2.00;;;;;;;;;;5058162;28;20181;-67
2023/11/05 06:00:35;;;;;;;6.03;2.00;;;;;;;;;;5037284;28;20243;-67
2023/11/05 06:03:00;;;;;;;4.47;2.00;;;;;;;;;;5056830;28;20185;-67
2023/11/05 06:05:27;;;;;;;5.28;2.22;;;;;;;;;;5060425;28;20549;-68
2023/11/05 06:07:52;;;;;;;4.57;2.00;;;;;;;;;;5066393;28;20205;-68
2023/11/05 06:10:17;;;;;;;6.43;1.80;;;;;;;;;;5044219;28;20204;-68
2023/11/05 06:12:42;;;;;;;6.93;1.80;;;;;;;;;;5058452;28;20209;-68
2023/11/05 06:15:09;;;;;;;4.35;2.30;;;;;;;;;;5059530;28;20196;-67
2023/11/05 06:17:34;;;;;;;2.42;1.58;;;;;;;;;;5040404;28;20188;-67
2023/11/05 06:19:59;;;;;;;3.67;1.73;;;;;;;;;;5059128;28;20205;-67
2023/11/05 06:22:25;;;;;;;4.15;2.05;;;;;;;;;;5065124;28;20181;-67
2023/11/05 06:24:50;;;;;;;8.48;2.70;;;;;;;;;;5057199;28;20242;-68
2023/11/05 06:27:15;;;;;;;4.93;1.73;;;;;;;;;;5052875;28;20211;-68
2023/11/05 06:29:40;;;;;;;8.30;1.70;;;;;;;;;;5063156;28;20653;-67
2023/11/05 06:32:06;;;;;;;5.40;2.53;;;;;;;;;;5056174;28;20256;-68
2023/11/05 06:34:31;;;;;;;9.63;2.17;;;;;;;;;;5053539;28;20181;-67
2023/11/05 06:36:57;;;;;;;7.90;2.28;;;;;;;;;;5059844;28;20184;-67
2023/11/05 06:39:22;;;;;;;13.43;2.40;;;;;;;;;;5059834;28;20173;-67
2023/11/05 06:41:48;;;;;;;10.32;2.85;;;;;;;;;;5058353;28;20201;-67
2023/11/05 06:44:13;;;;;;;7.40;3.13;;;;;;;;;;5058849;28;20184;-67
2023/11/05 06:46:38;;;;;;;5.07;2.47;;;;;;;;;;5056681;28;20213;-67
2023/11/05 06:49:03;;;;;;;7.93;2.33;;;;;;;;;;5057614;28;20174;-67
2023/11/05 06:51:28;;;;;;;8.57;2.60;;;;;;;;;;5060269;28;20411;-67
2023/11/05 06:53:54;;;;;;;2.67;1.60;;;;;;;;;;5058425;28;20185;-67
2023/11/05 06:56:19;;;;;;;12.00;2.58;;;;;;;;;;5060867;28;20181;-67
2023/11/05 06:58:44;;;;;;;4.60;2.10;;;;;;;;;;5058042;28;20181;-67
2023/11/05 07:01:09;;;;;;;7.97;2.10;;;;;;;;;;5036322;28;20741;-67
2023/11/05 07:03:34;;;;;;;7.18;2.28;;;;;;;;;;5060228;28;20177;-67
2023/11/05 07:06:00;;;;;;;6.82;2.15;;;;;;;;;;5059642;28;20553;-67
2023/11/05 07:08:28;;;;;;;3.25;1.58;;;;;;;;;;5053910;28;20571;-67
2023/11/05 07:10:53;;;;;;;7.07;2.25;;;;;;;;;;5061974;28;20255;-68
2023/11/05 07:13:19;;;;;;;7.88;3.45;;;;;;;;;;5060850;28;20652;-68
2023/11/05 07:15:44;;;;;;;10.38;2.65;;;;;;;;;;5057689;28;20668;-68
2023/11/05 07:18:09;;;;;;;7.80;2.67;;;;;;;;;;5057545;28;20620;-68
2023/11/05 07:20:36;;;;;;;3.60;1.58;;;;;;;;;;5051758;28;20619;-68
2023/11/05 07:23:02;;;;;;;8.00;2.72;;;;;;;;;;5054638;28;20192;-68
2023/11/05 07:25:28;;;;;;;3.63;1.73;;;;;;;;;;5061322;28;20182;-68
2023/11/05 07:27:53;;;;;;;8.43;2.75;;;;;;;;;;5054836;28;20220;-68
2023/11/05 07:30:18;;;;;;;7.32;1.90;;;;;;;;;;5056264;28;20193;-68
2023/11/05 07:32:44;;;;;;;4.75;2.03;;;;;;;;;;5059388;28;20288;-68
2023/11/05 07:35:09;;;;;;;13.57;2.05;;;;;;;;;;5057794;28;20173;-68
2023/11/05 07:37:34;;;;;;;10.85;2.35;;;;;;;;;;5056259;28;20193;-68
2023/11/05 07:39:59;;;;;;;8.20;2.45;;;;;;;;;;5049923;28;20197;-68
2023/11/05 07:42:25;;;;;;;9.50;2.40;;;;;;;;;;5061337;28;20170;-68
2023/11/05 07:44:50;;;;;;;7.30;2.65;;;;;;;;;;5064047;28;20177;-66
2023/11/05 07:47:15;;;;;;;9.05;2.95;;;;;;;;;;5067951;28;20740;-68
2023/11/05 07:49:42;;;;;;;12.88;3.22;;;;;;;;;;5059001;28;20218;-67
2023/11/05 07:52:08;;;;;;;7.85;2.58;;;;;;;;;;5057663;28;20243;-67
2023/11/05 07:54:34;;;;;;;4.80;2.58;;;;;;;;;;5060732;28;20176;-68
2023/11/05 07:56:59;;;;;;;9.00;2.53;;;;;;;;;;5046889;28;20560;-67
2023/11/05 07:59:24;;;;;;;6.22;2.47;;;;;;;;;;5056336;28;20183;-66
2023/11/05 08:01:49;;;;;;;10.45;2.67;;;;;;;;;;5058013;28;20279;-65
2023/11/05 08:04:15;;;;;;;8.15;3.63;;;;;;;;;;5060434;28;20172;-67
2023/11/05 08:06:41;;;;;;;10.70;3.00;;;;;;;;;;5056999;28;20514;-67
2023/11/05 08:09:06;;;;;;;7.75;3.30;;;;;;;;;;5053421;28;20201;-67
2023/11/05 08:11:31;;;;;;;8.38;2.88;;;;;;;;;;5058256;28;20204;-66
2023/11/05 08:13:56;;;;;;;3.30;2.00;;;;;;;;;;5057636;28;20525;-67
2023/11/05 08:16:22;;;;;;;3.97;2.38;;;;;;;;;;5052854;28;20663;-67
2023/11/05 08:18:47;;;;;;;7.68;3.63;;;;;;;;;;5055868;28;20200;-67
2023/11/05 08:21:12;;;;;;;6.93;2.70;;;;;;;;;;5059581;28;20293;-67
2023/11/05 08:23:38;;;;;;;9.23;2.42;;;;;;;;;;5055943;28;20671;-66
2023/11/05 08:26:04;;;;;;;10.02;3.00;;;;;;;;;;5042383;28;20189;-67
2023/11/05 08:28:29;;;;;;;6.47;3.30;;;;;;;;;;5036253;28;20174;-67
2023/11/05 08:30:55;;;;;;;13.07;3.65;;;;;;;;;;5058259;28;20227;-65
2023/11/05 08:33:20;;;;;;;8.27;3.60;;;;;;;;;;5057363;28;20185;-66
2023/11/05 08:35:46;;;;;;;6.75;3.15;;;;;;;;;;5056692;28;20648;-65
2023/11/05 08:38:12;;;;;;;6.55;2.85;;;;;;;;;;5058428;28;20192;-66
2023/11/05 08:40:37;;;;;;;9.63;3.03;;;;;;;;;;5058456;28;20737;-67
2023/11/05 08:43:02;;;;;;;9.38;3.42;;;;;;;;;;5057820;28;20335;-66
2023/11/05 08:45:27;;;;;;;11.20;3.22;;;;;;;;;;5054531;28;20271;-67
2023/11/05 08:47:53;;;;;;;6.63;3.03;;;;;;;;;;5060222;28;20204;-66
2023/11/05 08:50:19;;;;;;;5.72;3.25;;;;;;;;;;5047224;28;20287;-66
2023/11/05 08:52:45;;;;;;;9.02;3.10;;;;;;;;;;5060028;28;20180;-66
2023/11/05 08:55:12;;;;;;;10.20;3.10;;;;;;;;;;5058810;28;20173;-66
2023/11/05 08:57:37;;;;;;;7.95;3.05;;;;;;;;;;5061781;28;20177;-66
2023/11/05 09:00:09;;;;;;;7.25;2.45;;;;;;;;;;5069153;28;20807;-66
2023/11/05 09:02:35;;;;;;;8.40;2.65;;;;;;;;;;5052368;28;20185;-65
2023/11/05 09:05:00;;;;;;;8.10;2.35;;;;;;;;;;5058739;28;20613;-66
2023/11/05 09:07:25;;;;;;;8.43;3.33;;;;;;;;;;5064955;28;20209;-65
2023/11/05 09:09:50;;;;;;;5.72;3.05;;;;;;;;;;5063249;28;20706;-66
2023/11/05 09:12:15;;;;;;;10.75;3.25;;;;;;;;;;5065866;28;20177;-66
2023/11/05 09:14:42;;;;;;;7.47;3.30;;;;;;;;;;5067801;28;20192;-67
2023/11/05 09:17:08;;;;;;;6.03;3.70;;;;;;;;;;5065146;28;20590;-66
2023/11/05 09:19:34;;;;;;;8.60;3.00;;;;;;;;;;5048317;28;20177;-66
2023/11/05 09:21:59;;;;;;;7.28;2.58;;;;;;;;;;5067074;28;20216;-66
2023/11/05 09:24:27;;;;;;;7.57;3.35;;;;;;;;;;5063748;28;20185;-66
2023/11/05 09:26:52;;;;;;;3.85;2.17;;;;;;;;;;5061001;28;20200;-66
2023/11/05 09:29:18;;;;;;;7.18;2.60;;;;;;;;;;5059428;28;20259;-66
2023/11/05 09:31:43;;;;;;;5.95;2.92;;;;;;;;;;5059955;28;20623;-66
2023/11/05 09:34:08;;;;;;;5.40;2.10;;;;;;;;;;5062776;28;20177;-66
2023/11/05 09:36:34;;;;;;;10.40;2.92;;;;;;;;;;5068670;28;20260;-66
2023/11/05 09:38:59;;;;;;;9.40;3.35;;;;;;;;;;5070169;28;20634;-66
2023/11/05 09:41:25;;;;;;;6.22;2.55;;;;;;;;;;5066068;28;20205;-65
2023/11/05 09:43:50;;;;;;;6.53;2.95;;;;;;;;;;5059261;28;20565;-65
2023/11/05 09:46:15;;;;;;;5.22;2.35;;;;;;;;;;5058252;28;20236;-66
2023/11/05 09:48:41;;;;;;;7.45;2.83;;;;;;;;;;5041053;28;20651;-66
2023/11/05 09:51:08;;;;;;;4.85;2.60;;;;;;;;;;5062266;28;20193;-66
2023/11/05 09:53:34;;;;;;;5.50;2.97;;;;;;;;;;5063480;28;20643;-66
2023/11/05 09:55:59;;;;;;;6.30;3.20;;;;;;;;;;5062005;28;20271;-66
2023/11/05 09:58:24;;;;;;;5.20;2.80;;;;;;;;;;5060084;28;20241;-66
2023/11/05 10:00:51;;;;;;;6.63;3.67;;;;;;;;;;5062074;28;20228;-65
2023/11/05 10:03:17;;;;;;;5.15;2.63;;;;;;;;;;5061242;28;20256;-66
2023/11/05 10:05:43;;;;;;;5.22;3.40;;;;;;;;;;5054504;28;20265;-66
2023/11/05 10:08:10;;;;;;;5.32;2.85;;;;;;;;;;5060165;28;20197;-66
2023/11/05 10:10:36;;;;;;;3.65;2.75;;;;;;;;;;5047010;28;20676;-65
2023/11/05 10:13:04;;;;;;;3.30;2.33;;;;;;;;;;5062006;28;20648;-66
2023/11/05 10:15:32;;;;;;;6.88;3.10;;;;;;;;;;5061138;28;20844;-66
2023/11/05 10:17:57;;;;;;;5.82;2.97;;;;;;;;;;5060406;28;20191;-66
2023/11/05 10:20:23;;;;;;;8.65;3.17;;;;;;;;;;5044378;28;20201;-66
2023/11/05 10:23:05;;;;;;;4.80;2.58;;;;;;;;;;5060785;28;20304;-66
2023/11/05 10:25:30;;;;;;;2.90;2.00;;;;;;;;;;5054291;28;20186;-66
2023/11/05 10:27:57;;;;;;;6.07;1.80;;;;;;;;;;5057362;28;20209;-66
2023/11/05 10:30:22;;;;;;;4.10;1.67;;;;;;;;;;5058736;28;20197;-66
2023/11/05 10:32:48;;;;;;;5.20;1.35;;;;;;;;;;5059635;28;20577;-66
2023/11/05 10:35:15;;;;;;;2.75;1.30;;;;;;;;;;5059635;28;20234;-66
2023/11/05 10:37:41;;;;;;;4.55;1.52;;;;;;;;;;5060430;28;20207;-66
2023/11/05 10:40:08;;;;;;;2.75;1.55;;;;;;;;;;5060164;28;20205;-66
2023/11/05 10:42:34;;;;;;;4.47;1.70;;;;;;;;;;5053975;28;20632;-66
2023/11/05 10:45:00;;;;;;;7.35;1.55;;;;;;;;;;5059960;28;20260;-67
2023/11/05 10:47:25;;;;;;;12.40;2.10;;;;;;;;;;5055623;28;20212;-66
2023/11/05 10:49:57;;;;;;;8.23;2.35;;;;;;;;;;5060223;28;20201;-66
2023/11/05 10:52:22;;;;;;;3.35;1.52;;;;;;;;;;5056982;28;20333;-66
2023/11/05 10:55:01;;;;;;;4.75;1.70;;;;;;;;;;5059564;28;20573;-66
2023/11/05 10:57:48;;;;;;;6.60;2.00;;;;;;;;;;5062120;28;20187;-66
2023/11/05 11:00:14;;;;;;;5.25;1.88;;;;;;;;;;5061293;28;20208;-66
2023/11/05 11:02:40;;;;;;;3.60;1.95;;;;;;;;;;5042160;28;20672;-66
2023/11/05 11:05:07;;;;;;;8.77;2.13;;;;;;;;;;5043712;28;20180;-67
2023/11/05 11:07:33;;;;;;;2.80;1.52;;;;;;;;;;5066799;28;20281;-67
2023/11/05 11:09:58;;;;;;;8.38;1.60;;;;;;;;;;5049996;28;20280;-67
2023/11/05 11:12:33;;;;;;;3.90;1.58;;;;;;;;;;5057254;28;20201;-65
2023/11/05 11:14:59;;;;;;;6.68;2.33;;;;;;;;;;5055718;28;20641;-66
2023/11/05 11:17:34;;;;;;;5.78;1.88;;;;;;;;;;5063978;28;20178;-66
2023/11/05 11:20:21;;;;;;;5.82;1.50;;;;;;;;;;5056241;28;20246;-66
2023/11/05 11:22:46;;;;;;;4.57;1.77;;;;;;;;;;5057434;28;20176;-66
2023/11/05 11:25:14;;;;;;;4.40;1.60;;;;;;;;;;5061107;28;20272;-66
2023/11/05 11:27:40;;;;;;;2.90;1.35;;;;;;;;;;5055122;28;20258;-66
2023/11/05 11:30:09;;;;;;;3.20;1.70;;;;;;;;;;5061319;28;20271;-66
2023/11/05 11:32:34;;;;;;;3.35;2.03;;;;;;;;;;5058060;28;20196;-65
2023/11/05 11:34:59;;;;;;;3.88;1.55;;;;;;;;;;5064202;28;20607;-67
2023/11/05 11:37:25;;;;;;;4.80;1.30;;;;;;;;;;5054348;28;20182;-66
2023/11/05 11:39:50;;;;;;;5.57;1.67;;;;;;;;;;5063855;28;20208;-67
2023/11/05 11:42:16;;;;;;;4.72;1.58;;;;;;;;;;5041725;28;20188;-66
2023/11/05 11:44:41;;;;;;;6.10;1.50;;;;;;;;;;5037808;28;20642;-66
2023/11/05 11:47:07;;;;;;;4.88;1.50;;;;;;;;;;5046660;28;20668;-66
2023/11/05 11:49:33;;;;;;;6.18;1.67;;;;;;;;;;5051924;28;20547;-66
2023/11/05 11:51:58;;;;;;;3.03;1.88;;;;;;;;;;5049260;28;20173;-67
2023/11/05 11:54:24;;;;;;;5.57;1.80;;;;;;;;;;5047034;28;20196;-66
2023/11/05 11:56:49;;;;;;;3.92;2.08;;;;;;;;;;5046424;28;20185;-66
2023/11/05 11:59:14;;;;;;;4.85;2.03;;;;;;;;;;5047475;28;20181;-66
2023/11/05 12:01:40;;;;;;;3.53;1.92;;;;;;;;;;5047310;28;20297;-66
2023/11/05 12:04:06;;;;;;;4.18;2.00;;;;;;;;;;5046952;28;21261;-67
2023/11/05 12:06:32;;;;;;;6.03;2.20;;;;;;;;;;5045769;28;20201;-66
2023/11/05 12:08:58;;;;;;;3.70;1.58;;;;;;;;;;5047047;28;20200;-66
2023/11/05 12:11:27;;;;;;;3.05;1.70;;;;;;;;;;5047211;28;20576;-68
2023/11/05 12:13:53;;;;;;;6.40;2.05;;;;;;;;;;5047073;28;20181;-65
2023/11/05 12:16:19;;;;;;;2.88;1.65;;;;;;;;;;5050217;28;20196;-66
2023/11/05 12:18:45;;;;;;;4.80;1.60;;;;;;;;;;5048649;28;20181;-65
2023/11/05 12:21:11;;;;;;;2.67;1.58;;;;;;;;;;5051533;28;20204;-66
2023/11/05 12:23:37;;;;;;;8.95;1.40;;;;;;;;;;5053524;28;20251;-65
2023/11/05 12:26:03;;;;;;;3.53;1.40;;;;;;;;;;5051067;28;20219;-66
2023/11/05 12:28:29;;;;;;;5.75;1.17;;;;;;;;;;5030887;28;20189;-66
2023/11/05 12:30:58;;;;;;;2.83;1.48;;;;;;;;;;5051940;28;20206;-66
2023/11/05 12:33:23;;;;;;;6.00;1.60;;;;;;;;;;5049372;28;20676;-67
2023/11/05 12:35:49;;;;;;;3.75;1.48;;;;;;;;;;5050050;28;20188;-67
2023/11/05 12:38:14;;;;;;;2.38;1.13;;;;;;;;;;5049561;28;20189;-66
2023/11/05 12:40:39;;;;;;;3.33;1.30;;;;;;;;;;5049837;28;20197;-66
2023/11/05 12:43:05;;;;;;;4.00;1.08;;;;;;;;;;5050917;28;20184;-66
2023/11/05 12:45:30;;;;;;;3.10;1.10;;;;;;;;;;5033961;28;20420;-66
2023/11/05 12:47:56;;;;;;;2.00;0.80;;;;;;;;;;5033642;28;20299;-67
2023/11/05 12:50:21;;;;;;;3.83;1.27;;;;;;;;;;5055079;28;20232;-66
2023/11/05 12:52:48;;;;;;;4.43;1.10;;;;;;;;;;5053925;28;20173;-67
2023/11/05 12:55:13;;;;;;;3.28;1.13;;;;;;;;;;5030698;28;20184;-66
2023/11/05 12:57:38;;;;;;;2.92;0.80;;;;;;;;;;5039729;28;20181;-67
2023/11/05 13:00:04;;;;;;;6.35;1.55;;;;;;;;;;5059263;28;20288;-66
2023/11/05 13:02:29;;;;;;;5.82;1.35;;;;;;;;;;5063229;28;20254;-67
2023/11/05 13:04:54;;;;;;;5.20;1.10;;;;;;;;;;5062714;28;20666;-67
2023/11/05 13:07:19;;;;;;;3.35;0.80;;;;;;;;;;5068932;28;20683;-67
2023/11/05 13:09:45;;;;;;;2.97;1.20;;;;;;;;;;5062367;28;20189;-67
2023/11/05 13:12:10;;;;;;;5.57;1.40;;;;;;;;;;5069733;28;20207;-67
2023/11/05 13:14:35;;;;;;;8.68;1.70;;;;;;;;;;5065755;28;20211;-67
2023/11/05 13:17:03;;;;;;;5.90;1.45;;;;;;;;;;5059168;28;20668;-67
2023/11/05 13:19:28;;;;;;;7.40;1.58;;;;;;;;;;5044125;28;20184;-67
2023/11/05 13:21:54;;;;;;;7.82;1.77;;;;;;;;;;5058390;28;20201;-67
2023/11/05 13:24:19;;;;;;;3.13;1.15;;;;;;;;;;5062218;28;20262;-66
2023/11/05 13:26:44;;;;;;;4.80;1.13;;;;;;;;;;5056060;28;20216;-67
2023/11/05 13:29:09;;;;;;;5.68;1.00;;;;;;;;;;5048968;28;20173;-67
2023/11/05 13:31:35;;;;;;;3.35;1.30;;;;;;;;;;5049991;28;20197;-67
2023/11/05 13:34:00;;;;;;;4.82;1.10;;;;;;;;;;5050806;28;20203;-67
2023/11/05 13:36:26;;;;;;;7.00;1.33;;;;;;;;;;5047920;28;20578;-65
2023/11/05 13:38:51;;;;;;;2.33;1.02;;;;;;;;;;5047713;28;20185;-67
2023/11/05 13:41:16;;;;;;;1.65;1.25;;;;;;;;;;5048837;28;20270;-67
2023/11/05 13:43:42;;;;;;;3.05;1.38;;;;;;;;;;5049641;28;20232;-65
2023/11/05 13:46:07;;;;;;;5.53;1.60;;;;;;;;;;5048366;28;20684;-65
2023/11/05 13:48:32;;;;;;;4.07;1.30;;;;;;;;;;5048406;28;20268;-65
2023/11/05 13:50:57;;;;;;;6.05;1.05;;;;;;;;;;5037120;28;20196;-66
2023/11/05 13:53:24;;;;;;;3.60;1.15;;;;;;;;;;5051040;28;21241;-65
2023/11/05 13:55:50;;;;;;;7.18;1.25;;;;;;;;;;5047953;28;20294;-66
2023/11/05 13:58:16;;;;;;;4.72;1.60;;;;;;;;;;5047367;28;20316;-66
2023/11/05 14:00:42;;;;;;;3.50;1.10;;;;;;;;;;5070711;22;20233;-63
2023/11/05 14:03:07;;;;;;;6.07;1.13;;;;;;;;;;5051817;28;20180;-64
2023/11/05 14:05:32;;;;;;;8.35;1.63;;;;;;;;;;5049698;28;20330;-69
2023/11/05 14:07:57;;;;;;;4.78;1.85;;;;;;;;;;5050028;28;20204;-64
2023/11/05 14:10:23;;;;;;;4.45;1.33;;;;;;;;;;5050297;28;20202;-64
2023/11/05 14:12:48;;;;;;;2.88;1.40;;;;;;;;;;5049029;28;20184;-66
2023/11/05 14:15:13;;;;;;;8.30;1.90;;;;;;;;;;5049384;28;20344;-67
2023/11/05 14:17:40;;;;;;;7.45;1.98;;;;;;;;;;5049027;28;22204;-63
2023/11/05 14:20:07;;;;;;;8.93;2.22;;;;;;;;;;5048778;28;20230;-64
2023/11/05 14:22:32;;;;;;;3.83;1.90;;;;;;;;;;5050881;28;20686;-63
2023/11/05 14:24:57;;;;;;;5.03;1.80;;;;;;;;;;5048438;28;20311;-64
2023/11/05 14:27:22;;;;;;;6.68;1.83;;;;;;;;;;5048688;28;20212;-64
2023/11/05 14:29:48;;;;;;;7.22;2.00;;;;;;;;;;5047888;28;20200;-66
2023/11/05 14:32:14;;;;;;;5.28;1.70;;;;;;;;;;5032892;28;20287;-65